METAR Data
IDs: Format: Raw Decoded Include TAF

Data at: 2337 UTC 25 Oct 2021

KPWG 252256Z AUTO 16010KT 10SM CLR 31/22 A2990 RMK AO2 SLP117 T03060222
KPWG 252156Z AUTO 16009KT 10SM CLR 32/22 A2990 RMK AO2 SLP116 T03220222
KPWG 252056Z AUTO 14010KT 10SM FEW037 32/22 A2991 RMK AO2 SLP119 T03170217 56018
KPWG 251956Z AUTO 14004KT 10SM SCT037 31/22 A2992 RMK AO2 SLP123 T03110222
KPWG 251856Z AUTO VRB03KT 10SM SCT033 31/22 A2994 RMK AO2 SLP131 T03060222
KPWG 251756Z AUTO 11005KT 10SM CLR 30/22 A2996 RMK AO2 SLP138 T03000217 10300 20178 58011
KPWG 251656Z AUTO 6SM HZ CLR 29/22 A2998 RMK AO2 SLP144 T02890217
KPWG 251556Z AUTO 00000KT 10SM CLR 27/21 A2999 RMK AO2 SLP149 T02670211
KPWG 251456Z AUTO 00000KT 10SM CLR 23/20 A2999 RMK AO2 SLP151 T02280200 51016
KPWG 251356Z AUTO 36003KT 10SM CLR 20/19 A2998 RMK AO2 SLP147 T02000189
KPWG 251256Z AUTO 00000KT 6SM BR SCT002 18/18 A2996 RMK AO2 SLP142 T01780178
KPWG 251156Z AUTO 00000KT 10SM CLR 18/17 A2995 RMK AO2 SLP136 T01780172 10217 20178 53012
KPWG 251056Z AUTO 00000KT 10SM CLR 18/18 A2994 RMK AO2 SLP130 T01830178
KPWG 250956Z AUTO 00000KT 10SM CLR 19/18 A2992 RMK AO2 SLP124 T01890178
KPWG 250856Z AUTO 00000KT 10SM CLR 20/19 A2991 RMK AO2 SLP122 T02000189 50007
KPWG 250756Z AUTO 00000KT 10SM CLR 19/18 A2992 RMK AO2 SLP124 T01940183
KPWG 250656Z AUTO 35003KT 10SM CLR 21/19 A2991 RMK AO2 SLP121 T02060189
KPWG 250556Z AUTO 21003KT 10SM CLR 22/19 A2989 RMK AO2 SLP115 T02170189 10267 20217 403000194 51013
KPWG 250456Z AUTO 21003KT 10SM CLR 22/19 A2989 RMK AO2 SLP114 T02220189
KPWG 250356Z AUTO 18004KT 10SM CLR 23/19 A2987 RMK AO2 SLP110 T02280189
KPWG 250256Z AUTO 17009KT 10SM CLR 23/19 A2985 RMK AO2 SLP103 T02330194 51015
KPWG 250156Z AUTO 17008KT 10SM CLR 24/19 A2984 RMK AO2 SLP098 T02390194
KPWG 250056Z AUTO 17008KT 10SM CLR 24/19 A2983 RMK AO2 SLP094 T02440194
KPWG 242356Z AUTO 16008KT 10SM CLR 27/20 A2981 RMK AO2 SLP087 T02670200 10300 20267 53000
KPWG 242256Z AUTO 18012KT 10SM CLR 29/20 A2981 RMK AO2 SLP089 T02890200
KPWG 242156Z AUTO 18014KT 10SM FEW037 29/20 A2980 RMK AO2 SLP084 T02890200
KPWG 242056Z AUTO 16014KT 10SM OVC040 29/21 A2981 RMK AO2 SLP087 T02890206 56015
KPWG 241956Z AUTO 17010KT 10SM BKN034 BKN042 29/20 A2981 RMK AO2 SLP087 T02890200
KPWG 241905Z AUTO 18013KT 10SM SCT026 BKN037 28/21 A2982 RMK AO2
KPWG 241856Z AUTO 18013G18KT 10SM BKN024 BKN035 BKN041 28/21 A2982 RMK AO2 SLP092 T02830206
KPWG 241811Z AUTO 16013KT 10SM SCT017 28/21 A2985 RMK AO2
KPWG 241756Z AUTO 16014KT 10SM BKN017 28/21 A2985 RMK AO2 SLP102 T02780211 10278 20206 58016
KPWG 241744Z AUTO 16014KT 10SM OVC015 27/21 A2986 RMK AO2
KPWG 241656Z AUTO 18013KT 10SM OVC011 25/21 A2988 RMK AO2 SLP113 T02500211
KPWG 241556Z AUTO 16011KT 10SM OVC007 23/21 A2990 RMK AO2 SLP118 T02330206
KPWG 241456Z AUTO 16012KT 10SM OVC007 22/21 A2990 RMK AO2 SLP119 T02220206 53016
KPWG 241356Z AUTO 15010KT 10SM OVC007 21/20 A2988 RMK AO2 SLP111 T02110200
KPWG 241256Z AUTO 16005KT 10SM BKN009 OVC015 21/20 A2986 RMK AO2 CIG 007V012 SLP107 T02060200
KPWG 241211Z AUTO 18007KT 10SM FEW008 OVC015 21/19 A2986 RMK AO2
KPWG 241204Z AUTO 17007KT 10SM FEW006 OVC013 21/19 A2985 RMK AO2
KPWG 241156Z AUTO 17010KT 10SM BKN006 OVC013 21/19 A2985 RMK AO2 CIG 005V009 SLP101 T02060194 10211 20194 53004